Time;durP1;ratioP1;P1;durP2;ratioP2;P2;SDS_P1;SDS_P2;PMS_P1;PMS_P2;Temp;Humidity;BMP_temperature;BMP_pressure;BME280_temperature;BME280_humidity;BME280_pressure;Samples;Min_cycle;Max_cycle;Signal;HPM_P1;HPM_P2
2022/03/14 00:00:20;;;;;;;20.30;12.20;;;7.60;1.00;8.50;94062.00;;;;7399075;19;20161;-79
2022/03/14 00:02:54;;;;;;;20.37;13.00;;;7.70;1.00;8.50;94113.00;;;;7404514;19;20149;-80
2022/03/14 00:05:24;;;;;;;24.17;14.00;;;7.60;1.00;8.40;94121.00;;;;7409783;19;20144;-81
2022/03/14 00:07:51;;;;;;;23.03;14.03;;;7.60;1.00;8.30;94135.00;;;;7407716;19;20169;-81
2022/03/14 00:10:39;;;;;;;21.10;13.37;;;7.60;1.00;8.20;94166.00;;;;7403068;19;20161;-79
2022/03/14 00:13:07;;;;;;;20.53;13.83;;;7.50;1.00;8.20;94148.00;;;;7403808;19;20131;-79
2022/03/14 00:15:41;;;;;;;20.40;14.27;;;7.50;1.00;8.10;94190.00;;;;7400767;19;20158;-80
2022/03/14 00:18:10;;;;;;;25.87;15.50;;;7.40;1.00;8.10;94176.00;;;;7403125;19;20149;-80
2022/03/14 00:20:37;;;;;;;20.20;15.00;;;7.30;1.00;8.00;94191.00;;;;7400940;19;20125;-79
2022/03/14 00:23:11;;;;;;;22.70;15.23;;;7.30;1.00;8.00;94178.00;;;;7408515;19;20629;-80
2022/03/14 00:25:39;;;;;;;19.73;15.07;;;7.20;1.00;8.00;94162.00;;;;7407583;19;20160;-79
2022/03/14 00:28:06;;;;;;;22.60;16.57;;;7.10;1.00;8.00;94177.00;;;;7405433;19;20135;-79
2022/03/14 00:30:39;;;;;;;20.83;16.13;;;7.00;1.00;7.80;94213.00;;;;7403445;19;20133;-80
2022/03/14 00:33:06;;;;;;;24.07;17.53;;;6.90;64.10;7.70;94196.00;;;;7401243;19;20638;-78
2022/03/14 00:35:33;;;;;;;21.27;16.40;;;6.90;99.90;7.50;94210.00;;;;7395463;19;20145;-78
2022/03/14 00:38:07;;;;;;;21.13;16.60;;;6.70;1.00;7.30;94206.00;;;;7401838;19;20544;-76
2022/03/14 00:40:34;;;;;;;24.27;17.37;;;6.70;1.00;7.20;94234.00;;;;7396833;19;20622;-79
2022/03/14 00:43:03;;;;;;;23.33;17.23;;;6.70;1.00;7.20;94201.00;;;;7399628;19;20504;-79
2022/03/14 00:45:37;;;;;;;21.53;17.00;;;6.60;99.90;7.20;94203.00;;;;7399683;19;20153;-79
2022/03/14 00:48:05;;;;;;;22.87;17.27;;;6.60;99.90;7.10;94210.00;;;;7396295;19;20133;-78
2022/03/14 00:50:32;;;;;;;22.67;17.37;;;6.60;99.90;7.00;94195.00;;;;7392289;19;20615;-79
2022/03/14 00:53:07;;;;;;;24.47;16.97;;;6.50;1.00;6.90;94234.00;;;;7396229;19;20595;-78
2022/03/14 00:55:34;;;;;;;28.50;18.60;;;6.40;1.00;6.90;94217.00;;;;7394066;19;20132;-78
2022/03/14 00:58:01;;;;;;;24.63;17.40;;;6.30;1.00;6.80;94221.00;;;;7394043;19;20169;-76
2022/03/14 01:00:44;;;;;;;22.50;18.10;;;6.30;1.00;6.80;94264.00;;;;7390068;19;20145;-78
2022/03/14 01:03:11;;;;;;;22.37;16.67;;;6.20;99.90;6.70;94257.00;;;;7391819;19;20145;-78
2022/03/14 01:05:45;;;;;;;20.07;15.37;;;6.20;99.90;6.80;94236.00;;;;7393683;19;20156;-79
2022/03/14 01:08:12;;;;;;;19.80;14.10;;;6.10;99.90;6.80;94280.00;;;;7392545;19;20137;-77
2022/03/14 01:10:39;;;;;;;18.30;12.97;;;6.00;99.90;6.90;94256.00;;;;7393541;19;20151;-78
2022/03/14 01:13:13;;;;;;;15.53;11.63;;;6.00;99.90;6.50;94279.00;;;;7392102;19;20172;-77
2022/03/14 01:15:40;;;;;;;15.80;12.20;;;6.00;99.90;6.70;94293.00;;;;7393210;19;20129;-78
2022/03/14 01:18:07;;;;;;;14.37;11.30;;;6.00;1.00;6.60;94277.00;;;;7391607;19;20160;-78
2022/03/14 01:20:42;;;;;;;12.63;10.33;;;6.00;1.00;6.50;94332.00;;;;7391907;19;20145;-77
2022/03/14 01:23:09;;;;;;;13.80;10.90;;;5.90;1.00;6.50;94312.00;;;;7393442;19;20596;-79
2022/03/14 01:25:37;;;;;;;14.57;10.43;;;5.80;99.90;6.50;94318.00;;;;7391396;19;20143;-77
2022/03/14 01:28:12;;;;;;;13.43;9.47;;;5.80;99.90;6.40;94354.00;;;;7391590;19;20136;-76
2022/03/14 01:30:40;;;;;;;12.07;8.20;;;5.70;1.00;6.40;94273.00;;;;7391601;19;20957;-78
2022/03/14 01:33:07;;;;;;;10.00;7.00;;;5.60;1.00;6.30;94321.00;;;;7392206;19;20133;-77
2022/03/14 01:35:41;;;;;;;9.17;6.93;;;5.50;1.00;6.20;94334.00;;;;7392087;19;20150;-76
2022/03/14 01:38:09;;;;;;;6.43;5.30;;;5.50;1.00;6.10;94322.00;;;;7392367;19;20155;-77
2022/03/14 01:40:36;;;;;;;5.30;4.57;;;5.50;1.00;6.20;94369.00;;;;7389314;19;20168;-78
2022/03/14 01:43:12;;;;;;;6.90;5.53;;;5.50;1.00;6.20;94342.00;;;;7392272;19;20136;-78
2022/03/14 01:45:39;;;;;;;4.90;4.30;;;5.40;1.00;6.20;94361.00;;;;7392171;19;20151;-79
2022/03/14 01:48:06;;;;;;;4.97;4.00;;;5.40;1.00;6.30;94394.00;;;;7389288;19;20136;-78
2022/03/14 01:50:40;;;;;;;5.43;4.33;;;5.30;1.00;6.30;94403.00;;;;7394133;19;20612;-78
2022/03/14 01:53:08;;;;;;;6.03;4.37;;;5.40;1.00;6.30;94401.00;;;;7395455;19;20619;-78
2022/03/14 01:55:36;;;;;;;4.93;3.70;;;5.40;1.00;6.30;94386.00;;;;7396261;19;20137;-77
2022/03/14 01:58:16;;;;;;;5.40;4.37;;;5.30;1.00;6.30;94367.00;;;;7390841;19;20179;-79
2022/03/14 02:00:44;;;;;;;5.87;4.40;;;5.30;1.00;6.20;94413.00;;;;7389565;19;20595;-78
2022/03/14 02:03:18;;;;;;;6.13;4.10;;;5.40;1.00;6.40;94394.00;;;;7392581;19;20643;-78
2022/03/14 02:05:48;;;;;;;4.13;3.73;;;5.40;1.00;6.30;94417.00;;;;7391275;19;20124;-78
2022/03/14 02:08:18;;;;;;;4.43;3.97;;;5.30;1.00;6.40;94396.00;;;;7392242;19;20188;-78
2022/03/14 02:10:52;;;;;;;4.87;4.37;;;5.30;1.00;6.30;94422.00;;;;7390447;19;20467;-78
2022/03/14 02:13:19;;;;;;;5.83;5.20;;;5.30;1.00;6.20;94392.00;;;;7396440;19;20167;-78
2022/03/14 02:15:46;;;;;;;6.30;5.30;;;5.30;1.00;6.30;94403.00;;;;7391102;19;20140;-78
2022/03/14 02:18:20;;;;;;;5.30;4.60;;;5.20;15.50;6.20;94418.00;;;;7394645;19;20146;-76
2022/03/14 02:20:47;;;;;;;6.53;5.17;;;5.30;29.00;6.20;94441.00;;;;7389693;19;20153;-78
2022/03/14 02:23:15;;;;;;;5.97;5.00;;;5.20;11.40;6.20;94414.00;;;;7395677;19;20125;-81
2022/03/14 02:25:55;;;;;;;5.87;4.90;;;5.30;9.60;6.30;94402.00;;;;7398177;19;20169;-78
2022/03/14 02:28:26;;;;;;;5.63;4.90;;;5.20;8.00;6.30;94408.00;;;;7395984;19;20481;-78
2022/03/14 02:31:03;;;;;;;7.17;5.33;;;5.20;15.50;6.30;94407.00;;;;7395598;19;20153;-80
2022/03/14 02:33:32;;;;;;;6.27;4.67;;;5.20;30.60;6.10;94449.00;;;;7396902;19;20117;-79
2022/03/14 02:36:06;;;;;;;5.23;4.70;;;5.20;36.80;6.20;94411.00;;;;7395932;19;20157;-80
2022/03/14 02:38:33;;;;;;;4.83;4.33;;;5.20;40.90;6.20;94440.00;;;;7395370;19;20640;-78
2022/03/14 02:41:00;;;;;;;4.73;4.13;;;5.10;41.40;6.20;94434.00;;;;7391262;19;20138;-79
2022/03/14 02:43:36;;;;;;;6.07;4.17;;;5.10;25.30;6.20;94462.00;;;;7390795;19;20137;-79
2022/03/14 02:46:03;;;;;;;4.90;4.40;;;5.20;7.80;6.20;94439.00;;;;7394393;19;20140;-80
2022/03/14 02:48:30;;;;;;;4.77;4.17;;;5.20;1.00;6.20;94461.00;;;;7394449;19;20510;-80
2022/03/14 02:51:04;;;;;;;4.20;3.80;;;5.10;1.00;6.10;94468.00;;;;7401899;19;20158;-80
2022/03/14 02:53:31;;;;;;;4.40;3.67;;;5.10;1.00;6.10;94457.00;;;;7400131;19;20147;-78
2022/03/14 02:55:59;;;;;;;5.10;3.97;;;5.10;1.00;6.30;94424.00;;;;7397527;19;20146;-79
2022/03/14 02:58:39;;;;;;;4.47;3.43;;;5.10;12.70;6.20;94477.00;;;;7395396;19;20169;-79
2022/03/14 03:01:06;;;;;;;3.80;3.30;;;5.10;6.70;6.30;94453.00;;;;7392748;19;20185;-80
2022/03/14 03:03:39;;;;;;;3.77;3.37;;;5.10;1.00;6.30;94463.00;;;;7400220;19;20141;-80
2022/03/14 03:06:07;;;;;;;4.10;3.17;;;5.10;1.00;6.30;94473.00;;;;7407963;19;20136;-79
2022/03/14 03:08:34;;;;;;;3.40;3.10;;;5.20;1.00;6.30;94477.00;;;;7407250;19;20131;-80
2022/03/14 03:11:08;;;;;;;3.37;2.70;;;5.20;1.00;6.40;94505.00;;;;7405267;19;20137;-79
2022/03/14 03:13:35;;;;;;;2.90;2.60;;;5.30;1.00;6.30;94511.00;;;;7403319;19;20612;-79
2022/03/14 03:16:02;;;;;;;3.20;2.50;;;5.30;99.90;6.30;94475.00;;;;7397626;19;20200;-79
2022/03/14 03:18:36;;;;;;;2.17;1.97;;;5.30;99.90;6.20;94506.00;;;;7397563;19;20137;-79
2022/03/14 03:21:03;;;;;;;2.83;2.60;;;5.20;99.90;6.10;94509.00;;;;7394946;19;20174;-79
2022/03/14 03:23:31;;;;;;;2.73;2.10;;;5.20;99.90;6.00;94529.00;;;;7397409;19;20156;-78
2022/03/14 03:26:06;;;;;;;2.70;1.97;;;5.10;99.90;6.00;94538.00;;;;7396652;19;20129;-78
2022/03/14 03:28:37;;;;;;;1.50;1.40;;;5.10;99.90;5.80;94500.00;;;;7397362;19;20200;-79
2022/03/14 03:31:18;;;;;;;2.00;1.80;;;5.00;99.90;6.00;94513.00;;;;7396404;19;20167;-79
2022/03/14 03:33:52;;;;;;;1.90;1.37;;;4.90;99.90;5.80;94532.00;;;;7396263;19;20136;-79
2022/03/14 03:36:19;;;;;;;1.20;1.10;;;4.90;99.90;5.60;94517.00;;;;7397800;19;20141;-79
2022/03/14 03:38:46;;;;;;;1.17;1.07;;;4.80;99.90;5.70;94541.00;;;;7397526;19;20141;-79
2022/03/14 03:41:20;;;;;;;1.27;1.10;;;4.70;99.90;5.60;94541.00;;;;7393600;19;20121;-79
2022/03/14 03:43:47;;;;;;;1.03;0.93;;;4.70;99.90;5.70;94534.00;;;;7395464;19;20612;-79
2022/03/14 03:46:14;;;;;;;1.27;1.17;;;4.70;99.90;5.60;94508.00;;;;7395914;19;20604;-78
2022/03/14 03:48:48;;;;;;;1.20;1.10;;;4.60;99.90;5.60;94537.00;;;;7397072;19;20141;-79
2022/03/14 03:51:15;;;;;;;0.97;0.73;;;4.60;99.90;5.50;94509.00;;;;7395596;19;20125;-79
2022/03/14 03:53:42;;;;;;;1.47;1.00;;;4.50;99.90;5.50;94509.00;;;;7395202;19;20145;-78
2022/03/14 03:56:16;;;;;;;0.87;0.87;;;4.50;99.90;5.50;94520.00;;;;7397042;19;20205;-78
2022/03/14 03:58:50;;;;;;;0.97;0.90;;;4.50;99.90;5.50;94529.00;;;;7393536;19;20171;-78
2022/03/14 04:01:24;;;;;;;1.03;0.83;;;4.40;99.90;5.40;94551.00;;;;7395016;19;20140;-79
2022/03/14 04:03:55;;;;;;;1.20;1.10;;;4.40;99.90;5.40;94528.00;;;;7395624;19;20263;-79
2022/03/14 04:06:30;;;;;;;0.73;0.73;;;4.40;1.00;5.40;94551.00;;;;7396588;19;20128;-79
2022/03/14 04:09:06;;;;;;;0.80;0.70;;;4.40;99.90;5.40;94594.00;;;;7395700;19;20140;-79
2022/03/14 04:11:35;;;;;;;0.80;0.80;;;4.30;99.90;5.30;94588.00;;;;7395634;19;20138;-78
2022/03/14 04:14:03;;;;;;;0.90;0.67;;;4.30;99.90;5.30;94549.00;;;;7394999;19;20140;-79
2022/03/14 04:16:41;;;;;;;0.70;0.70;;;4.40;99.90;5.40;94591.00;;;;7394813;19;20179;-79
2022/03/14 04:19:08;;;;;;;2.33;0.50;;;4.40;12.80;5.30;94600.00;;;;7394986;19;20595;-78
2022/03/14 04:21:36;;;;;;;0.60;0.60;;;4.40;35.10;5.40;94619.00;;;;7393653;19;20145;-79
2022/03/14 04:24:09;;;;;;;0.70;0.70;;;4.40;11.50;5.40;94603.00;;;;7396454;19;20136;-79
2022/03/14 04:26:36;;;;;;;2.30;0.73;;;4.40;1.00;5.50;94624.00;;;;7397490;19;20165;-78
2022/03/14 04:29:04;;;;;;;1.00;0.90;;;4.40;1.00;5.40;94640.00;;;;7397401;19;20204;-79
2022/03/14 04:31:37;;;;;;;1.13;0.80;;;4.40;99.90;5.40;94613.00;;;;7396522;19;20129;-78
2022/03/14 04:34:04;;;;;;;1.77;1.20;;;4.50;99.90;5.30;94657.00;;;;7396629;19;20458;-80
2022/03/14 04:36:31;;;;;;;1.47;0.93;;;4.40;99.90;5.20;94645.00;;;;7395977;19;20148;-79
2022/03/14 04:39:06;;;;;;;4.47;1.20;;;4.40;99.90;5.20;94632.00;;;;7399826;19;20128;-80
2022/03/14 04:41:37;;;;;;;2.17;1.07;;;4.40;99.90;5.30;94652.00;;;;7395988;19;20506;-79
2022/03/14 04:44:05;;;;;;;5.30;0.97;;;4.30;99.90;5.10;94633.00;;;;7394434;19;20129;-79
2022/03/14 04:46:39;;;;;;;2.73;0.90;;;4.30;99.90;5.10;94635.00;;;;7393538;19;20160;-80
2022/03/14 04:49:08;;;;;;;1.40;0.93;;;4.20;1.00;5.00;94669.00;;;;7394721;19;20208;-79
2022/03/14 04:51:36;;;;;;;2.17;1.00;;;4.20;1.00;5.20;94654.00;;;;7394442;19;20125;-79
2022/03/14 04:54:10;;;;;;;3.27;1.20;;;4.20;99.90;5.20;94639.00;;;;7394597;19;20163;-78
2022/03/14 04:56:37;;;;;;;3.93;1.40;;;4.10;99.90;5.10;94640.00;;;;7394917;19;20149;-78
2022/03/14 04:59:04;;;;;;;6.37;1.37;;;4.10;99.90;5.10;94619.00;;;;7392966;19;20509;-79
2022/03/14 05:01:39;;;;;;;4.17;1.53;;;4.10;99.90;5.00;94658.00;;;;7393585;19;20141;-78
2022/03/14 05:04:07;;;;;;;4.57;1.47;;;4.00;99.90;4.80;94642.00;;;;7397263;19;20603;-78
2022/03/14 05:06:35;;;;;;;5.87;1.20;;;4.00;99.90;4.80;94634.00;;;;7397593;19;20559;-78
2022/03/14 05:09:12;;;;;;;8.17;2.00;;;4.00;99.90;4.90;94650.00;;;;7397526;19;20591;-78
2022/03/14 05:11:39;;;;;;;5.87;1.40;;;3.90;99.90;4.90;94650.00;;;;7396259;19;20161;-78
2022/03/14 05:14:10;;;;;;;6.37;1.30;;;3.80;99.90;4.80;94647.00;;;;7395848;19;20137;-78
2022/03/14 05:16:44;;;;;;;5.50;1.67;;;3.80;99.90;4.70;94673.00;;;;7393741;19;20630;-78
2022/03/14 05:19:12;;;;;;;6.70;1.30;;;3.70;99.90;4.50;94697.00;;;;7394111;19;20589;-79
2022/03/14 05:21:39;;;;;;;4.93;1.33;;;3.60;99.90;4.50;94676.00;;;;7390430;19;20628;-78
2022/03/14 05:24:13;;;;;;;6.03;1.33;;;3.60;99.90;4.50;94675.00;;;;7395665;19;20230;-78
2022/03/14 05:26:40;;;;;;;7.07;2.00;;;3.60;99.90;4.50;94702.00;;;;7390158;19;20160;-78
2022/03/14 05:29:08;;;;;;;5.47;1.50;;;3.60;99.90;4.40;94680.00;;;;7394541;19;20151;-78
2022/03/14 05:31:42;;;;;;;7.40;1.57;;;3.60;99.90;4.50;94702.00;;;;7394650;19;20124;-78
2022/03/14 05:34:15;;;;;;;5.77;1.70;;;3.50;99.90;4.40;94710.00;;;;7392151;19;20133;-78
2022/03/14 05:36:49;;;;;;;7.90;1.60;;;3.50;99.90;4.50;94700.00;;;;7394914;19;20160;-79
2022/03/14 05:39:16;;;;;;;5.93;1.80;;;3.50;99.90;4.50;94721.00;;;;7392758;19;20128;-78
2022/03/14 05:41:43;;;;;;;8.50;1.93;;;3.60;99.90;4.50;94693.00;;;;7389825;19;20137;-79
2022/03/14 05:44:17;;;;;;;10.40;3.13;;;3.60;99.90;4.50;94733.00;;;;7392808;19;20162;-78
2022/03/14 05:46:44;;;;;;;8.57;2.17;;;3.60;99.90;4.40;94710.00;;;;7392059;19;20157;-78
2022/03/14 05:49:11;;;;;;;7.27;2.20;;;3.40;99.90;4.20;94718.00;;;;7392838;19;20133;-79
2022/03/14 05:51:45;;;;;;;8.50;1.63;;;3.40;99.90;4.20;94719.00;;;;7390626;19;20124;-79
2022/03/14 05:54:12;;;;;;;9.67;2.30;;;3.40;99.90;4.30;94745.00;;;;7392484;19;20206;-78
2022/03/14 05:56:39;;;;;;;10.37;2.00;;;3.40;99.90;4.10;94732.00;;;;7392106;19;20167;-79
2022/03/14 05:59:20;;;;;;;5.73;1.87;;;3.30;99.90;4.00;94757.00;;;;7389160;19;20158;-78
2022/03/14 06:01:48;;;;;;;3.93;1.83;;;3.20;99.90;4.10;94749.00;;;;7390199;19;20133;-79
2022/03/14 06:04:23;;;;;;;9.60;2.20;;;3.10;99.90;4.00;94764.00;;;;7393575;19;20151;-78
2022/03/14 06:06:50;;;;;;;6.23;1.73;;;3.10;1.00;4.10;94721.00;;;;7392150;19;20165;-77
2022/03/14 06:09:17;;;;;;;6.70;1.80;;;3.10;1.00;3.90;94747.00;;;;7391375;19;20160;-78
2022/03/14 06:11:59;;;;;;;6.37;1.70;;;3.10;1.00;3.90;94783.00;;;;7392886;19;20872;-79
2022/03/14 06:14:27;;;;;;;12.83;1.97;;;3.10;1.00;4.20;94733.00;;;;7391822;19;20135;-78
2022/03/14 06:17:04;;;;;;;6.03;1.80;;;3.00;1.00;4.20;94671.00;;;;7392092;19;20211;-79
2022/03/14 06:19:34;;;;;;;4.80;1.60;;;3.10;1.00;4.20;94790.00;;;;7399179;19;20141;-78
2022/03/14 06:22:24;;;;;;;5.60;1.87;;;3.10;1.00;4.20;94722.00;;;;7342679;19;20189;-77
2022/03/14 06:24:52;;;;;;;8.50;1.70;;;3.10;99.90;4.20;94800.00;;;;7396052;19;20169;-77
2022/03/14 06:27:27;;;;;;;9.30;1.83;;;3.20;99.90;4.00;94824.00;;;;7399709;19;20135;-77
2022/03/14 06:29:56;;;;;;;5.50;1.60;;;3.20;99.90;4.00;94740.00;;;;7398899;19;20605;-78
2022/03/14 06:32:35;;;;;;;7.53;1.53;;;3.10;99.90;4.20;94861.00;;;;7399242;19;20141;-78
2022/03/14 06:35:25;;;;;;;7.50;1.77;;;3.10;99.90;4.40;94740.00;;;;7400388;19;20121;-78
2022/03/14 06:37:57;;;;;;;7.63;2.03;;;3.20;99.90;4.50;94757.00;;;;7396531;19;20204;-78
2022/03/14 06:40:32;;;;;;;6.33;1.80;;;3.20;99.90;4.60;94783.00;;;;7402199;19;20525;-78
2022/03/14 06:43:00;;;;;;;8.77;1.70;;;3.30;99.90;4.70;94821.00;;;;7402810;19;20159;-77
2022/03/14 06:45:27;;;;;;;10.30;1.73;;;3.40;99.90;4.80;94787.00;;;;7402555;19;20137;-78
2022/03/14 06:48:03;;;;;;;4.57;1.27;;;3.50;51.90;5.00;94819.00;;;;7403027;19;20476;-78
2022/03/14 06:50:31;;;;;;;4.77;1.93;;;3.60;15.90;5.20;94808.00;;;;7404305;19;20161;-79
2022/03/14 06:52:59;;;;;;;5.10;1.30;;;3.70;1.00;5.30;94790.00;;;;7403742;19;20262;-79
2022/03/14 06:55:33;;;;;;;11.23;1.80;;;3.80;1.00;5.40;94806.00;;;;7402671;19;20498;-79
2022/03/14 06:58:07;;;;;;;7.20;1.60;;;3.90;1.00;5.60;94823.00;;;;7403745;19;20525;-79
2022/03/14 07:00:48;;;;;;;4.70;2.03;;;4.10;1.00;5.50;94794.00;;;;7404829;19;20503;-79
2022/03/14 07:03:16;;;;;;;5.87;1.57;;;4.20;99.90;5.80;94830.00;;;;7405180;19;20188;-79
2022/03/14 07:05:50;;;;;;;9.83;2.13;;;4.40;99.90;5.80;94822.00;;;;7403594;19;20594;-79
2022/03/14 07:08:17;;;;;;;4.70;1.57;;;4.60;99.90;6.00;94818.00;;;;7403355;19;20125;-79
2022/03/14 07:10:45;;;;;;;4.13;1.40;;;4.70;99.90;6.30;94807.00;;;;7403178;19;20149;-79
2022/03/14 07:13:18;;;;;;;5.20;1.80;;;4.90;1.00;6.50;94807.00;;;;7402762;19;20156;-77
2022/03/14 07:15:45;;;;;;;5.03;1.50;;;5.00;1.00;6.50;94813.00;;;;7401776;19;20161;-79
2022/03/14 07:18:13;;;;;;;4.63;1.80;;;5.20;1.00;6.70;94827.00;;;;7400526;19;20132;-77
2022/03/14 07:20:48;;;;;;;6.27;1.50;;;5.30;1.00;-101.00;94817.00;;;;7400490;19;20132;-79
2022/03/14 07:23:16;;;;;;;7.27;1.40;;;5.40;1.00;7.10;94847.00;;;;7401264;19;20600;-78
2022/03/14 07:25:43;;;;;;;6.23;1.50;;;5.70;1.00;7.80;94858.00;;;;7397074;19;20176;-79
2022/03/14 07:28:18;;;;;;;7.70;1.53;;;5.90;1.00;7.90;94857.00;;;;7401057;19;20511;-77
2022/03/14 07:30:46;;;;;;;6.67;1.43;;;6.10;99.90;8.10;94853.00;;;;7402580;19;20450;-79
2022/03/14 07:33:15;;;;;;;6.50;1.47;;;6.50;99.90;8.10;94868.00;;;;7402516;19;20117;-78
2022/03/14 07:35:49;;;;;;;6.63;1.47;;;6.50;99.90;7.80;160462.00;;;;7400600;19;20129;-79
2022/03/14 07:38:17;;;;;;;4.10;1.67;;;6.40;99.90;7.30;94877.00;;;;7401748;19;20200;-79
2022/03/14 07:40:45;;;;;;;4.43;1.50;;;6.30;99.90;196.50;160309.00;;;;7401562;19;20125;-78
2022/03/14 07:43:19;;;;;;;4.40;1.40;;;6.10;99.90;196.50;224877.00;;;;7402124;19;20132;-79
2022/03/14 07:45:48;;;;;;;3.10;1.20;;;6.10;99.90;196.50;224877.00;;;;7400283;19;20144;-78
2022/03/14 07:48:15;;;;;;;5.43;1.17;;;6.00;99.90;196.50;224877.00;;;;7399529;19;20140;-79
2022/03/14 07:50:49;;;;;;;3.33;1.20;;;6.20;99.90;196.50;224877.00;;;;7400845;19;20133;-79
2022/03/14 07:53:18;;;;;;;3.87;1.43;;;6.50;99.90;196.50;224877.00;;;;7401735;19;20141;-79
2022/03/14 07:55:45;;;;;;;7.30;1.93;;;6.70;99.90;196.50;224877.00;;;;7399422;19;20153;-79
2022/03/14 07:58:27;;;;;;;6.67;1.70;;;6.90;92.90;196.50;224877.00;;;;7398864;19;20157;-79
2022/03/14 08:01:04;;;;;;;7.00;1.90;;;7.20;1.00;196.50;224877.00;;;;7397289;19;20144;-78
2022/03/14 08:03:37;;;;;;;8.13;1.60;;;7.10;1.00;196.50;224877.00;;;;7398684;19;20180;-77
2022/03/14 08:06:07;;;;;;;4.13;1.53;;;7.20;1.00;196.50;224877.00;;;;7394767;19;20137;-77
2022/03/14 08:08:35;;;;;;;7.97;1.80;;;7.50;1.00;196.50;224877.00;;;;7395222;19;20157;-76
2022/03/14 08:11:10;;;;;;;5.33;1.70;;;7.60;1.00;196.50;224877.00;;;;7395688;19;20231;-77
2022/03/14 08:13:37;;;;;;;9.60;1.53;;;7.60;1.00;196.50;224877.00;;;;7396508;19;20133;-77
2022/03/14 08:16:05;;;;;;;3.70;1.40;;;7.60;1.00;196.50;224877.00;;;;7398881;19;20128;-77
2022/03/14 08:18:40;;;;;;;4.10;1.33;;;7.80;1.00;196.50;224877.00;;;;7397201;19;20144;-78
2022/03/14 08:21:07;;;;;;;7.83;1.70;;;7.80;1.00;196.50;224877.00;;;;7395971;19;20156;-77
2022/03/14 08:23:36;;;;;;;4.30;1.23;;;8.00;1.00;196.50;224877.00;;;;7396448;19;20564;-78
2022/03/14 08:26:10;;;;;;;6.03;1.50;;;8.30;1.00;196.50;224877.00;;;;7395524;19;20167;-77
2022/03/14 08:28:39;;;;;;;4.23;1.60;;;8.30;1.00;196.50;224877.00;;;;7395992;19;20157;-76
2022/03/14 08:31:06;;;;;;;5.17;1.77;;;8.30;1.00;196.50;224877.00;;;;7398218;19;20620;-77
2022/03/14 08:33:41;;;;;;;5.07;1.33;;;8.30;1.00;196.50;224877.00;;;;7397801;19;20125;-78
2022/03/14 08:36:09;;;;;;;3.87;1.20;;;8.20;1.00;196.50;224877.00;;;;7395617;19;20144;-79
2022/03/14 08:38:38;;;;;;;2.13;1.30;;;8.20;1.00;196.50;224877.00;;;;7393749;19;20125;-79
2022/03/14 08:41:15;;;;;;;5.93;1.67;;;8.00;1.00;196.50;224877.00;;;;7391394;19;20133;-77
2022/03/14 08:43:45;;;;;;;7.83;1.60;;;7.60;1.00;196.50;224877.00;;;;7392811;19;20689;-79
2022/03/14 08:46:16;;;;;;;7.77;1.70;;;7.80;1.00;196.50;224877.00;;;;7393921;19;20192;-79
2022/03/14 08:48:51;;;;;;;4.47;1.90;;;8.40;1.00;196.50;224877.00;;;;7393505;19;20129;-78
2022/03/14 08:51:19;;;;;;;4.97;1.50;;;8.80;1.00;196.50;224877.00;;;;7392544;19;20132;-78
2022/03/14 08:53:46;;;;;;;12.20;1.70;;;9.20;1.00;196.50;224877.00;;;;7394937;19;20141;-78
2022/03/14 08:56:21;;;;;;;8.17;1.43;;;9.40;1.00;196.50;224877.00;;;;7394883;19;20155;-79
2022/03/14 08:58:55;;;;;;;5.10;1.50;;;9.40;1.00;196.50;224877.00;;;;7391946;19;20177;-77
2022/03/14 09:01:36;;;;;;;5.27;1.20;;;9.30;1.00;196.50;224877.00;;;;7387115;19;20144;-78
2022/03/14 09:04:04;;;;;;;7.20;1.77;;;9.20;1.00;196.50;224877.00;;;;7389406;19;20144;-78
2022/03/14 09:06:38;;;;;;;6.27;1.53;;;9.30;1.00;196.50;224877.00;;;;7390151;19;20626;-77
2022/03/14 09:09:06;;;;;;;2.33;1.07;;;9.70;1.00;196.50;224877.00;;;;7389818;19;20136;-76
2022/03/14 09:11:37;;;;;;;3.60;1.40;;;9.80;1.00;196.50;224877.00;;;;7395338;19;20136;-76
2022/03/14 09:14:11;;;;;;;4.23;1.70;;;10.20;1.00;196.50;224877.00;;;;7393242;19;20208;-79
2022/03/14 09:16:39;;;;;;;4.93;1.77;;;10.30;1.00;196.50;224877.00;;;;7392904;19;20526;-79
2022/03/14 09:19:09;;;;;;;3.10;1.15;;;10.40;1.00;196.50;224877.00;;;;7397020;19;20157;-79
2022/03/14 09:21:43;;;;;;;4.65;1.40;;;10.90;1.00;196.50;224877.00;;;;7397908;19;20188;-79
2022/03/14 09:24:11;;;;;;;2.53;1.25;;;11.30;1.00;196.50;224877.00;;;;7399832;19;20144;-78
2022/03/14 09:26:38;;;;;;;2.97;1.40;;;11.40;1.00;196.50;224877.00;;;;7394006;19;20168;-80
2022/03/14 09:29:12;;;;;;;6.13;1.50;;;11.20;1.00;196.50;224877.00;;;;7397323;19;20132;-78
2022/03/14 09:31:40;;;;;;;1.73;1.10;;;11.30;1.00;196.50;224877.00;;;;7397007;19;20145;-79
2022/03/14 09:34:07;;;;;;;4.18;1.50;;;11.10;1.00;196.50;224877.00;;;;7400055;19;20141;-78
2022/03/14 09:36:42;;;;;;;3.92;1.55;;;11.20;1.00;196.50;224877.00;;;;7396113;19;20140;-78
2022/03/14 09:39:14;;;;;;;3.50;1.27;;;11.10;1.00;196.50;224877.00;;;;7397187;19;20658;-79
2022/03/14 09:41:53;;;;;;;3.67;1.40;;;11.20;1.00;196.50;224877.00;;;;7395596;19;20145;-79
2022/03/14 09:44:26;;;;;;;3.38;1.38;;;10.80;1.00;196.50;224877.00;;;;7393009;19;20125;-79
2022/03/14 09:47:01;;;;;;;3.78;1.45;;;10.80;1.00;196.50;224877.00;;;;7395594;19;20596;-77
2022/03/14 09:49:31;;;;;;;3.97;0.98;;;10.80;1.00;196.50;224877.00;;;;7395394;19;20628;-79
2022/03/14 09:52:00;;;;;;;5.00;1.45;;;10.00;1.00;196.50;224877.00;;;;7395323;19;20168;-78
2022/03/14 09:54:35;;;;;;;2.30;1.10;;;9.50;1.00;196.50;224877.00;;;;7395992;19;20147;-79
2022/03/14 09:57:04;;;;;;;3.60;1.27;;;9.30;1.00;196.50;224877.00;;;;7395123;19;20599;-78
2022/03/14 09:59:33;;;;;;;5.67;1.70;;;9.30;1.00;196.50;224877.00;;;;7395707;19;20165;-77
2022/03/14 10:02:11;;;;;;;3.07;1.10;;;9.60;1.00;196.50;224877.00;;;;7396908;19;20583;-79
2022/03/14 10:04:39;;;;;;;3.15;1.23;;;10.10;1.00;196.50;224877.00;;;;7396535;19;20150;-79
2022/03/14 10:07:13;;;;;;;3.43;1.20;;;9.90;1.00;196.50;224877.00;;;;7397711;19;20140;-78
2022/03/14 10:09:42;;;;;;;3.87;1.20;;;9.40;1.00;196.50;224877.00;;;;7396278;19;20137;-77
2022/03/14 10:12:14;;;;;;;3.35;1.13;;;9.60;1.00;196.50;224877.00;;;;7395959;19;20141;-78
2022/03/14 10:14:52;;;;;;;3.80;1.13;;;10.00;1.00;196.50;224877.00;;;;7404583;19;20195;-79
2022/03/14 10:17:19;;;;;;;2.47;1.08;;;10.20;1.00;196.50;224877.00;;;;7403509;19;20144;-78
2022/03/14 10:19:56;;;;;;;2.83;1.20;;;10.30;1.00;196.50;224877.00;;;;7403144;19;20137;-77
2022/03/14 10:22:42;;;;;;;3.38;1.00;;;10.50;1.00;196.50;224877.00;;;;7402533;19;20141;-78
2022/03/14 10:25:16;;;;;;;2.70;1.25;;;11.00;1.00;196.50;224877.00;;;;7406473;19;20631;-80
2022/03/14 10:27:56;;;;;;;2.08;1.20;;;11.90;1.00;196.50;224877.00;;;;7414216;19;20135;-80
2022/03/14 10:30:33;;;;;;;3.03;1.10;;;12.70;99.90;196.50;224877.00;;;;7410538;19;20159;-80
2022/03/14 10:33:08;;;;;;;3.92;1.65;;;13.30;99.90;196.50;224877.00;;;;7409290;19;20500;-78
2022/03/14 10:35:38;;;;;;;3.90;0.90;;;13.10;99.90;196.50;224877.00;;;;7407690;19;20540;-80
2022/03/14 10:38:09;;;;;;;2.45;1.05;;;12.90;99.90;196.50;224877.00;;;;7408487;19;20600;-79
2022/03/14 10:40:45;;;;;;;1.85;0.93;;;13.30;99.90;196.50;224877.00;;;;7411688;19;20490;-78
2022/03/14 10:43:35;;;;;;;2.00;1.00;;;14.00;99.90;196.50;224877.00;;;;7405579;19;20472;-78
2022/03/14 10:46:09;;;;;;;2.15;1.05;;;13.90;99.90;196.50;224877.00;;;;7403510;19;20145;-78
2022/03/14 10:48:43;;;;;;;2.33;1.10;;;13.70;99.90;196.50;224877.00;;;;7409353;19;20140;-78
2022/03/14 10:51:30;;;;;;;2.50;1.20;;;13.80;99.90;196.50;224877.00;;;;7407491;19;20158;-79
2022/03/14 10:54:05;;;;;;;2.65;1.30;;;13.70;99.90;196.50;224877.00;;;;7408531;19;20160;-78
2022/03/14 10:56:39;;;;;;;4.25;1.20;;;13.70;99.90;196.50;224877.00;;;;7406072;19;20133;-77
2022/03/14 10:59:20;;;;;;;1.63;0.90;;;13.50;99.90;196.50;224877.00;;;;7406086;19;20821;-77
2022/03/14 11:01:59;;;;;;;2.10;0.93;;;13.30;99.90;196.50;224877.00;;;;7399528;19;20607;-78
2022/03/14 11:04:27;;;;;;;2.55;1.10;;;13.40;99.90;196.50;224877.00;;;;7408604;19;20165;-80
2022/03/14 11:07:00;;;;;;;1.67;0.75;;;13.30;99.90;196.50;224877.00;;;;7409200;19;20129;-78
2022/03/14 11:09:50;;;;;;;1.75;0.95;;;13.70;99.90;196.50;224877.00;;;;7409124;19;20136;-79
2022/03/14 11:12:24;;;;;;;2.35;1.02;;;13.70;99.90;196.50;224877.00;;;;7409585;19;20129;-79
2022/03/14 11:15:17;;;;;;;2.08;1.08;;;13.50;99.90;196.50;224877.00;;;;7407531;19;20140;-80
2022/03/14 11:17:44;;;;;;;3.40;1.33;;;13.00;99.90;196.50;224877.00;;;;7412572;19;20121;-79
2022/03/14 11:20:34;;;;;;;4.40;1.10;;;12.70;99.90;196.50;224877.00;;;;7407780;19;20153;-80